Time;durP1;ratioP1;P1;durP2;ratioP2;P2;SDS_P1;SDS_P2;PMS_P1;PMS_P2;Temp;Humidity;BMP_temperature;BMP_pressure;BME280_temperature;BME280_humidity;BME280_pressure;Samples;Min_cycle;Max_cycle;Signal;HPM_P1;HPM_P2
2023/12/20 00:00:40;;;;;;;10.88;3.08;;;;;;;9.40;71.36;101587.22;6195391;23;20120;-72
2023/12/20 00:03:08;;;;;;;10.02;2.92;;;;;;;9.38;71.26;101590.09;6195471;23;20026;-74
2023/12/20 00:05:40;;;;;;;13.43;3.80;;;;;;;9.38;71.28;101600.00;6193777;23;20067;-72
2023/12/20 00:08:08;;;;;;;16.42;2.65;;;;;;;9.37;70.91;101582.25;6194346;23;20079;-72
2023/12/20 00:10:36;;;;;;;9.95;2.95;;;;;;;9.36;70.99;101597.50;6194674;23;20029;-71
2023/12/20 00:13:04;;;;;;;12.63;3.05;;;;;;;9.37;70.72;101598.34;6194668;23;20043;-71
2023/12/20 00:15:32;;;;;;;11.45;3.03;;;;;;;9.32;70.65;101606.97;6195042;23;20021;-72
2023/12/20 00:18:00;;;;;;;9.15;2.90;;;;;;;9.31;70.63;101610.69;6194559;23;20025;-71
2023/12/20 00:20:29;;;;;;;12.05;2.70;;;;;;;9.31;70.79;101602.63;6194022;23;20029;-69
2023/12/20 00:22:58;;;;;;;13.50;2.80;;;;;;;9.30;70.26;101597.47;6194701;23;20025;-72
2023/12/20 00:25:26;;;;;;;10.07;2.50;;;;;;;9.28;70.71;101602.19;6195388;23;20021;-72
2023/12/20 00:27:54;;;;;;;10.85;3.92;;;;;;;9.27;70.23;101605.91;6194440;23;20036;-72
2023/12/20 00:30:22;;;;;;;9.35;2.30;;;;;;;9.28;70.28;101602.19;6195036;23;20056;-72
2023/12/20 00:32:49;;;;;;;11.73;2.63;;;;;;;9.26;70.04;101599.72;6194905;23;20028;-72
2023/12/20 00:35:18;;;;;;;9.88;2.97;;;;;;;9.24;70.42;101599.06;6193828;23;20029;-70
2023/12/20 00:37:46;;;;;;;10.77;2.20;;;;;;;9.24;70.28;101599.06;6193832;23;20032;-71
2023/12/20 00:40:15;;;;;;;7.75;1.92;;;;;;;9.21;70.57;101588.72;6194868;23;20364;-71
2023/12/20 00:42:43;;;;;;;10.45;2.13;;;;;;;9.20;70.78;101603.16;6194564;23;20052;-70
2023/12/20 00:45:10;;;;;;;9.05;2.30;;;;;;;9.11;70.21;101582.88;6194637;23;20069;-71
2023/12/20 00:47:38;;;;;;;13.10;3.63;;;;;;;9.17;70.33;101586.63;6194315;23;20048;-71
2023/12/20 00:50:07;;;;;;;15.27;2.28;;;;;;;9.18;70.14;101585.63;6195434;23;20060;-73
2023/12/20 00:52:35;;;;;;;7.05;3.08;;;;;;;9.16;70.27;101584.97;6194163;23;20024;-70
2023/12/20 00:55:03;;;;;;;11.38;2.30;;;;;;;9.16;69.92;101582.28;6194586;23;20021;-71
2023/12/20 00:57:33;;;;;;;15.63;2.33;;;;;;;9.13;70.24;101584.34;6194839;23;20025;-71
2023/12/20 01:00:01;;;;;;;9.02;2.30;;;;;;;9.11;70.69;101582.88;6194724;23;20379;-70
2023/12/20 01:02:29;;;;;;;11.88;2.13;;;;;;;9.14;69.71;101582.50;6194386;23;20025;-72
2023/12/20 01:04:56;;;;;;;11.80;2.90;;;;;;;9.11;70.32;101581.03;6194083;23;20017;-72
2023/12/20 01:07:24;;;;;;;7.22;2.22;;;;;;;9.11;69.88;101585.56;6194111;23;20437;-71
2023/12/20 01:09:52;;;;;;;11.50;2.72;;;;;;;9.12;69.52;101589.91;6194561;23;20043;-71
2023/12/20 01:12:20;;;;;;;12.43;2.45;;;;;;;9.11;69.77;101591.75;6194993;23;20048;-70
2023/12/20 01:14:50;;;;;;;8.40;2.45;;;;;;;9.09;70.42;101592.97;6196976;23;20017;-71
2023/12/20 01:17:17;;;;;;;12.55;2.72;;;;;;;9.09;70.25;101591.13;6196158;23;20263;-72
2023/12/20 01:19:45;;;;;;;11.43;2.25;;;;;;;9.08;69.59;101605.53;6195971;23;20029;-71
2023/12/20 01:22:13;;;;;;;14.10;2.58;;;;;;;9.08;69.72;101600.19;6196731;23;20048;-71
2023/12/20 01:24:41;;;;;;;11.63;2.85;;;;;;;9.06;70.01;101606.75;6195862;23;20112;-70
2023/12/20 01:27:10;;;;;;;6.93;2.20;;;;;;;9.06;69.88;101609.44;6196519;23;20459;-71
2023/12/20 01:29:38;;;;;;;12.05;2.03;;;;;;;9.04;69.97;101603.44;6196472;23;20029;-72
2023/12/20 01:32:08;;;;;;;10.32;2.17;;;;;;;9.04;70.15;101598.91;6196789;23;20435;-72
2023/12/20 01:34:35;;;;;;;11.82;1.95;;;;;;;9.04;69.55;101606.13;6195868;23;20490;-71
2023/12/20 01:37:04;;;;;;;10.85;2.30;;;;;;;9.05;69.96;101599.75;6195923;23;20075;-72
2023/12/20 01:39:32;;;;;;;12.98;2.28;;;;;;;9.02;69.84;101600.97;6195763;23;20105;-72
2023/12/20 01:41:59;;;;;;;6.47;2.10;;;;;;;9.02;69.52;101613.53;6196446;23;20103;-71
2023/12/20 01:44:27;;;;;;;10.48;2.80;;;;;;;8.92;70.02;101594.25;6195900;23;20435;-72
2023/12/20 01:46:55;;;;;;;15.68;3.22;;;;;;;8.98;69.40;101606.91;6196004;23;20025;-71
2023/12/20 01:49:25;;;;;;;10.68;1.98;;;;;;;8.97;70.10;101603.38;6196635;23;20072;-71
2023/12/20 01:51:53;;;;;;;11.45;2.90;;;;;;;8.97;69.81;101600.69;6195227;23;20032;-70
2023/12/20 01:54:22;;;;;;;9.13;1.88;;;;;;;8.97;69.64;101600.69;6196303;23;20032;-71
2023/12/20 01:56:51;;;;;;;9.20;2.90;;;;;;;8.97;69.74;101602.56;6196031;23;20029;-72
2023/12/20 01:59:21;;;;;;;7.30;2.28;;;;;;;8.96;69.71;101601.72;6195902;23;20021;-72
2023/12/20 02:01:49;;;;;;;10.23;2.30;;;;;;;8.94;69.14;101595.72;6196188;23;20281;-71
2023/12/20 02:04:17;;;;;;;10.93;2.17;;;;;;;8.88;69.51;101584.94;6196346;23;20021;-70
2023/12/20 02:06:47;;;;;;;9.05;1.90;;;;;;;8.91;69.61;101596.09;6195028;23;20113;-70
2023/12/20 02:09:16;;;;;;;11.50;2.30;;;;;;;8.92;70.08;101591.56;6195390;23;20024;-71
2023/12/20 02:11:43;;;;;;;11.00;3.10;;;;;;;8.92;69.51;101588.91;6195418;23;20353;-70
2023/12/20 02:14:11;;;;;;;8.55;2.67;;;;;;;8.93;69.70;101598.59;6196255;23;20021;-71
2023/12/20 02:16:38;;;;;;;11.20;2.35;;;;;;;8.93;69.27;101602.09;6196186;23;20056;-71
2023/12/20 02:19:15;;;;;;;11.20;2.67;;;;;;;8.93;69.59;101606.63;6195316;23;20056;-70
2023/12/20 02:21:44;;;;;;;13.02;2.85;;;;;;;8.91;69.17;101609.50;6194835;23;20043;-71
2023/12/20 02:24:12;;;;;;;11.10;2.47;;;;;;;8.91;69.11;101606.84;6195810;23;20028;-71
2023/12/20 02:26:41;;;;;;;12.63;2.17;;;;;;;8.91;69.31;101598.78;6196476;23;20029;-70
2023/12/20 02:29:13;;;;;;;8.40;2.60;;;;;;;8.90;69.81;101590.94;6195719;23;20025;-70
2023/12/20 02:31:41;;;;;;;11.30;2.60;;;;;;;8.89;69.15;101597.31;6196200;23;20531;-70
2023/12/20 02:34:09;;;;;;;8.52;2.45;;;;;;;8.90;69.35;101585.59;6195743;23;20031;-69
2023/12/20 02:36:36;;;;;;;8.75;2.75;;;;;;;8.90;69.34;101590.94;6195274;23;20025;-71
2023/12/20 02:39:06;;;;;;;7.80;1.92;;;;;;;8.88;69.51;101593.81;6194724;23;20021;-72
2023/12/20 02:41:34;;;;;;;9.50;2.20;;;;;;;8.87;69.67;101594.00;6196780;23;20079;-72
2023/12/20 02:44:02;;;;;;;10.07;2.35;;;;;;;8.85;69.64;101607.59;6195082;23;20056;-72
2023/12/20 02:46:30;;;;;;;13.23;3.60;;;;;;;8.85;69.30;101602.25;6195986;23;20333;-72
2023/12/20 02:48:58;;;;;;;11.85;2.63;;;;;;;8.85;68.72;101602.25;6195695;23;20025;-71
2023/12/20 02:51:26;;;;;;;12.90;3.15;;;;;;;8.83;69.10;101601.59;6194985;23;20035;-72
2023/12/20 02:53:53;;;;;;;7.25;2.42;;;;;;;8.83;68.75;101601.59;6196026;23;20021;-72
2023/12/20 02:56:23;;;;;;;10.32;3.05;;;;;;;8.83;68.87;101601.59;6195869;23;20020;-71
2023/12/20 02:58:50;;;;;;;6.43;1.88;;;;;;;8.82;69.41;101599.94;6195383;23;20059;-72
2023/12/20 03:01:18;;;;;;;11.23;2.80;;;;;;;8.82;68.85;101595.41;6195289;23;20360;-71
2023/12/20 03:03:46;;;;;;;13.52;2.85;;;;;;;8.80;69.13;101593.94;6195552;23;20025;-71
2023/12/20 03:06:18;;;;;;;9.07;2.00;;;;;;;8.80;69.01;101602.81;6195393;23;20036;-71
2023/12/20 03:08:46;;;;;;;12.88;2.78;;;;;;;8.78;69.57;101591.47;6195119;23;20054;-70
2023/12/20 03:11:14;;;;;;;11.98;2.35;;;;;;;8.75;69.30;101589.16;6194972;23;20025;-70
2023/12/20 03:13:43;;;;;;;11.35;2.45;;;;;;;8.76;69.05;101593.50;6194802;23;20045;-71
2023/12/20 03:16:11;;;;;;;10.90;2.67;;;;;;;8.77;69.25;101597.00;6195900;23;20035;-71
2023/12/20 03:18:39;;;;;;;11.35;3.13;;;;;;;8.76;68.92;101584.63;6195749;23;20051;-71
2023/12/20 03:21:07;;;;;;;12.60;2.72;;;;;;;8.74;69.08;101590.19;6193425;23;20025;-70
2023/12/20 03:23:35;;;;;;;11.65;2.92;;;;;;;8.75;69.25;101580.28;6195509;23;20024;-70
2023/12/20 03:26:03;;;;;;;14.60;3.40;;;;;;;8.73;68.77;101588.53;6195344;23;20016;-71
2023/12/20 03:28:31;;;;;;;10.13;3.45;;;;;;;8.73;69.10;101583.16;6194962;23;20029;-71
2023/12/20 03:31:02;;;;;;;9.77;2.38;;;;;;;8.73;69.47;101583.16;6195485;23;20028;-71
2023/12/20 03:33:30;;;;;;;7.60;2.70;;;;;;;8.72;69.43;101580.66;6195319;23;20371;-71
2023/12/20 03:35:58;;;;;;;9.50;2.50;;;;;;;8.71;69.29;101579.84;6194092;23;20025;-71
2023/12/20 03:38:25;;;;;;;10.38;2.53;;;;;;;8.71;69.82;101584.38;6195472;23;20025;-72
2023/12/20 03:40:53;;;;;;;16.85;4.05;;;;;;;8.60;69.60;101568.84;6195001;23;20498;-71
2023/12/20 03:43:21;;;;;;;7.57;2.15;;;;;;;8.63;69.24;101566.59;6195049;23;20033;-71
2023/12/20 03:45:49;;;;;;;12.65;3.42;;;;;;;8.69;69.74;101576.53;6195415;23;20033;-72
2023/12/20 03:48:18;;;;;;;14.60;2.70;;;;;;;8.68;69.40;101574.88;6195414;23;20021;-72
2023/12/20 03:50:47;;;;;;;12.98;2.50;;;;;;;8.69;69.34;101575.69;6194026;23;20051;-71
2023/12/20 03:53:14;;;;;;;9.88;3.00;;;;;;;8.67;69.65;101565.16;6195037;23;20029;-70
2023/12/20 03:55:42;;;;;;;10.45;2.47;;;;;;;8.69;69.98;101562.28;6194441;23;20025;-71
2023/12/20 03:58:10;;;;;;;14.13;3.10;;;;;;;8.69;69.53;101570.34;6194861;23;20025;-71
2023/12/20 04:00:38;;;;;;;15.60;2.63;;;;;;;8.68;69.14;101568.69;6195014;23;20080;-71
2023/12/20 04:03:06;;;;;;;13.73;3.17;;;;;;;8.67;69.93;101570.53;6195477;23;20025;-71
2023/12/20 04:05:35;;;;;;;14.73;3.33;;;;;;;8.66;70.14;101568.91;6194280;23;20027;-69
2023/12/20 04:08:03;;;;;;;12.02;3.55;;;;;;;8.67;69.79;101572.38;6194469;23;20025;-71
2023/12/20 04:10:31;;;;;;;13.25;3.33;;;;;;;8.66;69.64;101571.59;6195281;23;20048;-71
2023/12/20 04:12:59;;;;;;;9.40;2.70;;;;;;;8.65;70.04;101577.13;6194586;23;20040;-71
2023/12/20 04:15:26;;;;;;;9.02;2.67;;;;;;;8.61;69.96;101568.66;6195378;23;20071;-72
2023/12/20 04:17:54;;;;;;;14.10;3.67;;;;;;;8.65;70.14;101574.44;6195321;23;20029;-71
2023/12/20 04:20:22;;;;;;;12.80;3.17;;;;;;;8.63;69.51;101585.38;6193532;23;20306;-72
2023/12/20 04:22:51;;;;;;;11.55;3.40;;;;;;;8.63;69.59;101590.72;6194275;23;20032;-72
2023/12/20 04:25:19;;;;;;;14.60;3.45;;;;;;;8.63;69.44;101573.81;6194990;23;20017;-72
2023/12/20 04:27:47;;;;;;;13.50;3.15;;;;;;;8.64;70.07;101578.97;6194102;23;20323;-70
2023/12/20 04:30:15;;;;;;;10.07;2.60;;;;;;;8.63;70.23;101574.66;6194892;23;20028;-71
2023/12/20 04:32:43;;;;;;;10.02;2.88;;;;;;;8.66;69.87;101573.44;6194759;23;20033;-71
2023/12/20 04:35:11;;;;;;;11.05;3.00;;;;;;;8.64;69.67;101588.88;6194322;23;20052;-71
2023/12/20 04:37:39;;;;;;;12.65;3.00;;;;;;;8.64;70.16;101587.03;6193951;23;20051;-71
2023/12/20 04:40:09;;;;;;;8.45;2.90;;;;;;;8.65;69.80;101585.16;6194222;23;20047;-72
2023/12/20 04:42:37;;;;;;;16.10;3.70;;;;;;;8.65;69.86;101569.09;6195068;23;20035;-72
2023/12/20 04:45:05;;;;;;;11.70;3.38;;;;;;;8.64;70.17;101578.97;6195194;23;20032;-73
2023/12/20 04:47:33;;;;;;;11.88;3.03;;;;;;;8.64;70.16;101587.03;6197522;23;20407;-72
2023/12/20 04:50:02;;;;;;;9.45;2.53;;;;;;;8.64;70.33;101578.97;6197743;23;20080;-72
2023/12/20 04:52:30;;;;;;;12.32;3.50;;;;;;;8.66;70.25;101589.50;6196878;23;20355;-72
2023/12/20 04:54:59;;;;;;;15.25;3.72;;;;;;;8.64;69.67;101578.97;6198481;23;20024;-72
2023/12/20 04:57:28;;;;;;;14.68;3.42;;;;;;;8.64;69.49;101575.47;6197499;23;20355;-72
2023/12/20 04:59:56;;;;;;;13.55;4.32;;;;;;;8.64;69.52;101573.63;6198135;23;20096;-71
2023/12/20 05:02:24;;;;;;;10.52;3.83;;;;;;;8.64;69.75;101578.97;6198239;23;20032;-71
2023/12/20 05:04:53;;;;;;;14.63;3.20;;;;;;;8.64;69.44;101568.25;6197429;23;20099;-71
2023/12/20 05:07:23;;;;;;;16.52;5.28;;;;;;;8.64;69.91;101576.31;6197002;23;20028;-72
2023/12/20 05:09:51;;;;;;;10.75;2.90;;;;;;;8.61;69.71;101570.50;6197204;23;20024;-71
2023/12/20 05:12:18;;;;;;;15.90;3.55;;;;;;;8.64;69.99;101567.44;6198313;23;20021;-72
2023/12/20 05:14:47;;;;;;;11.55;3.20;;;;;;;8.66;69.50;101565.41;6198726;23;20426;-72
2023/12/20 05:17:15;;;;;;;15.90;4.22;;;;;;;8.65;70.16;101566.41;6197575;23;20366;-72
2023/12/20 05:19:43;;;;;;;9.27;2.90;;;;;;;8.66;69.83;101558.19;6197892;23;20028;-72
2023/12/20 05:22:11;;;;;;;9.85;3.35;;;;;;;8.65;69.83;101561.88;6197733;23;20025;-72
2023/12/20 05:24:39;;;;;;;13.43;3.08;;;;;;;8.66;69.55;101558.19;6197924;23;20021;-70
2023/12/20 05:27:07;;;;;;;10.88;4.05;;;;;;;8.65;69.92;101561.06;6197456;23;20025;-71
2023/12/20 05:29:34;;;;;;;14.23;3.47;;;;;;;8.56;70.02;101546.97;6198144;23;20025;-70
2023/12/20 05:32:04;;;;;;;16.08;3.72;;;;;;;8.65;69.58;101569.09;6197714;23;20028;-71
2023/12/20 05:34:32;;;;;;;13.27;3.35;;;;;;;8.61;70.06;101563.28;6197781;23;20040;-71
2023/12/20 05:37:01;;;;;;;20.73;4.40;;;;;;;8.60;69.74;101558.13;6196908;23;20025;-70
2023/12/20 05:39:30;;;;;;;8.90;3.63;;;;;;;8.61;70.52;101557.94;6197423;23;20053;-70
2023/12/20 05:41:58;;;;;;;14.25;3.95;;;;;;;8.61;70.29;101562.47;6198129;23;20025;-72
2023/12/20 05:44:26;;;;;;;14.75;3.83;;;;;;;8.60;70.19;101561.63;6197616;23;20020;-68
2023/12/20 05:46:54;;;;;;;15.02;3.45;;;;;;;8.62;70.58;101556.09;6198510;23;20077;-72
2023/12/20 05:49:23;;;;;;;11.98;3.03;;;;;;;8.60;70.14;101556.28;6196964;23;20083;-72
2023/12/20 05:51:51;;;;;;;14.43;3.55;;;;;;;8.59;70.04;101567.19;6196989;23;20502;-72
2023/12/20 05:54:19;;;;;;;12.70;3.92;;;;;;;8.59;70.32;101567.19;6197528;23;20056;-70
2023/12/20 05:56:47;;;;;;;22.92;4.13;;;;;;;8.58;69.94;101576.25;6197795;23;20479;-70
2023/12/20 05:59:15;;;;;;;14.43;4.25;;;;;;;8.58;70.49;101573.56;6195902;23;20025;-70
2023/12/20 06:01:43;;;;;;;16.50;3.88;;;;;;;8.57;70.01;101572.72;6196783;23;20036;-70
2023/12/20 06:04:11;;;;;;;9.75;3.03;;;;;;;8.58;70.48;101578.91;6195176;23;20032;-70
2023/12/20 06:06:43;;;;;;;14.63;4.45;;;;;;;8.55;69.97;101577.44;6193875;23;20017;-70
2023/12/20 06:09:11;;;;;;;17.08;3.85;;;;;;;8.56;70.29;101587.16;6194943;23;20529;-66
2023/12/20 06:11:39;;;;;;;10.70;3.63;;;;;;;8.56;70.02;101589.00;6195074;23;20025;-66
2023/12/20 06:14:07;;;;;;;12.80;3.22;;;;;;;8.55;70.33;101585.47;6194970;23;20025;-67
2023/12/20 06:16:35;;;;;;;15.73;4.40;;;;;;;8.54;69.77;101581.16;6195072;23;20029;-71
2023/12/20 06:19:02;;;;;;;13.40;3.63;;;;;;;8.54;69.52;101583.81;6195464;23;20025;-70
2023/12/20 06:21:30;;;;;;;17.15;4.47;;;;;;;8.54;69.51;101583.81;6195373;23;20048;-71
2023/12/20 06:24:01;;;;;;;13.70;3.13;;;;;;;8.54;69.65;101583.00;6196090;23;20036;-71
2023/12/20 06:26:28;;;;;;;16.40;3.35;;;;;;;8.53;70.14;101579.50;6196577;23;20017;-71
2023/12/20 06:28:56;;;;;;;14.25;3.33;;;;;;;8.52;69.79;101591.22;6196002;23;20025;-70
2023/12/20 06:31:24;;;;;;;14.88;3.70;;;;;;;8.49;70.20;101594.28;6195592;23;20051;-71
2023/12/20 06:33:57;;;;;;;13.93;3.40;;;;;;;8.48;69.78;101581.91;6195900;23;20458;-72
2023/12/20 06:36:25;;;;;;;12.60;3.15;;;;;;;8.49;69.79;101580.88;6194597;23;20176;-72
2023/12/20 06:38:53;;;;;;;18.77;4.13;;;;;;;8.47;69.30;101582.94;6195382;23;20025;-73
2023/12/20 06:41:24;;;;;;;17.15;3.50;;;;;;;8.50;69.04;101579.88;6196303;23;20218;-73
2023/12/20 06:43:52;;;;;;;9.68;2.95;;;;;;;8.46;69.24;101590.13;6192089;23;20040;-70
2023/12/20 06:46:20;;;;;;;11.38;3.15;;;;;;;8.46;69.31;101584.78;6192810;23;20768;-68
2023/12/20 06:48:48;;;;;;;14.20;3.50;;;;;;;8.43;69.69;101585.16;6192192;23;20032;-69
2023/12/20 06:51:19;;;;;;;15.68;3.28;;;;;;;8.47;69.72;101585.59;6191534;23;20048;-68
2023/12/20 06:53:47;;;;;;;18.00;3.25;;;;;;;8.38;69.88;101571.50;6192334;23;20079;-68
2023/12/20 06:56:16;;;;;;;12.05;3.30;;;;;;;8.46;69.35;101586.63;6191069;23;20036;-67
2023/12/20 06:58:48;;;;;;;11.95;3.03;;;;;;;8.44;69.58;101575.28;6190558;23;20021;-68
2023/12/20 07:01:17;;;;;;;24.23;5.15;;;;;;;8.47;69.50;101578.41;6191904;23;20510;-69
2023/12/20 07:03:45;;;;;;;12.95;3.65;;;;;;;8.45;69.27;101577.75;6191424;23;20224;-69
2023/12/20 07:06:13;;;;;;;10.85;3.03;;;;;;;8.45;68.99;101582.28;6191298;23;20180;-70
2023/12/20 07:08:41;;;;;;;14.73;2.80;;;;;;;8.45;69.86;101576.94;6191714;23;20025;-68
2023/12/20 07:11:09;;;;;;;22.15;3.33;;;;;;;8.43;69.63;101578.97;6195410;23;20044;-72
2023/12/20 07:13:37;;;;;;;18.00;3.88;;;;;;;8.40;69.68;101576.66;6194820;23;20076;-73
2023/12/20 07:16:06;;;;;;;18.27;4.47;;;;;;;8.40;69.66;101568.63;6196538;23;20031;-72
2023/12/20 07:18:34;;;;;;;18.17;4.10;;;;;;;8.39;69.19;101565.13;6196560;23;20045;-73
2023/12/20 07:21:02;;;;;;;25.50;4.45;;;;;;;8.38;69.68;101560.78;6195227;23;20035;-72
2023/12/20 07:23:30;;;;;;;13.63;3.60;;;;;;;8.38;69.88;101559.97;6195424;23;20028;-72
2023/12/20 07:25:58;;;;;;;12.57;3.42;;;;;;;8.38;69.88;101568.00;6196367;23;20024;-71
2023/12/20 07:28:25;;;;;;;13.73;3.47;;;;;;;8.37;68.98;101569.84;6195748;23;20025;-70
2023/12/20 07:30:53;;;;;;;15.57;3.42;;;;;;;8.36;69.89;101570.84;6194729;23;20408;-70
2023/12/20 07:33:23;;;;;;;14.18;4.50;;;;;;;8.36;69.09;101575.38;6194877;23;20447;-72
2023/12/20 07:35:51;;;;;;;14.07;3.90;;;;;;;8.34;69.17;101583.63;6193940;23;20033;-70
2023/12/20 07:38:19;;;;;;;13.05;3.40;;;;;;;8.36;69.70;101581.56;6194457;23;20373;-71
2023/12/20 07:40:47;;;;;;;19.45;3.97;;;;;;;8.35;69.07;101571.88;6195901;23;20029;-73
2023/12/20 07:43:15;;;;;;;16.15;3.50;;;;;;;8.37;69.32;101572.53;6195955;23;20079;-74
2023/12/20 07:45:43;;;;;;;15.38;3.33;;;;;;;8.38;69.50;101578.72;6195706;23;20052;-73
2023/12/20 07:48:11;;;;;;;15.75;3.28;;;;;;;8.37;69.70;101571.69;6195277;23;20021;-72
2023/12/20 07:50:40;;;;;;;10.93;3.22;;;;;;;8.38;69.54;101578.72;6195568;23;20136;-72
2023/12/20 07:53:08;;;;;;;10.95;2.83;;;;;;;8.41;69.40;101564.94;6193870;23;20025;-73
2023/12/20 07:55:36;;;;;;;17.98;3.83;;;;;;;8.43;70.10;101573.59;6196067;23;20055;-74
2023/12/20 07:58:05;;;;;;;22.40;3.33;;;;;;;8.45;69.69;101568.91;6194905;23;20705;-73
2023/12/20 08:00:32;;;;;;;17.73;3.20;;;;;;;8.44;69.83;101577.94;6195252;23;20025;-73
2023/12/20 08:03:03;;;;;;;15.80;3.67;;;;;;;8.42;70.07;101585.34;6195594;23;20036;-74
2023/12/20 08:05:31;;;;;;;16.77;4.40;;;;;;;8.42;69.35;101582.66;6194453;23;20080;-72
2023/12/20 08:08:00;;;;;;;16.65;3.67;;;;;;;8.41;68.88;101587.19;6193682;23;20017;-73
2023/12/20 08:10:29;;;;;;;14.40;2.72;;;;;;;8.39;69.89;101583.88;6192188;23;20109;-73
2023/12/20 08:12:56;;;;;;;16.30;4.50;;;;;;;8.38;69.55;101582.22;6195632;23;20059;-73
2023/12/20 08:15:24;;;;;;;13.07;2.97;;;;;;;8.41;69.47;101589.03;6194959;23;20029;-72
2023/12/20 08:17:52;;;;;;;13.38;3.17;;;;;;;8.43;69.61;101590.50;6195008;23;20052;-73
2023/12/20 08:20:20;;;;;;;18.05;3.58;;;;;;;8.41;69.96;101581.84;6194641;23;20047;-73
2023/12/20 08:23:00;;;;;;;16.10;3.15;;;;;;;8.41;69.88;101584.50;6192645;23;20349;-73
2023/12/20 08:25:28;;;;;;;9.38;2.60;;;;;;;8.41;69.40;101597.06;6190552;23;20549;-72
2023/12/20 08:27:56;;;;;;;17.80;4.13;;;;;;;8.39;69.35;101591.06;6193959;23;20379;-73
2023/12/20 08:30:24;;;;;;;6.35;2.55;;;;;;;8.40;69.76;101606.13;6194523;23;20334;-73
2023/12/20 08:32:52;;;;;;;13.93;2.95;;;;;;;8.39;69.88;101604.47;6195158;23;20131;-73
2023/12/20 08:35:20;;;;;;;12.45;2.85;;;;;;;8.40;69.88;101596.25;6194549;23;20052;-74
2023/12/20 08:37:48;;;;;;;12.10;3.08;;;;;;;8.38;69.82;101600.13;6193933;23;20021;-73
2023/12/20 08:40:17;;;;;;;11.35;2.88;;;;;;;8.37;69.87;101610.00;6195174;23;20036;-74
2023/12/20 08:42:45;;;;;;;13.35;2.90;;;;;;;8.38;69.31;101605.50;6194686;23;20085;-73
2023/12/20 08:45:13;;;;;;;18.38;3.40;;;;;;;8.38;69.98;101592.09;6194632;23;20025;-73
2023/12/20 08:47:44;;;;;;;11.75;3.80;;;;;;;8.37;69.49;101585.09;6194862;23;20032;-74
2023/12/20 08:50:13;;;;;;;14.00;3.28;;;;;;;8.37;69.37;101585.09;6194280;23;20365;-74
2023/12/20 08:52:41;;;;;;;15.98;3.53;;;;;;;8.37;69.90;101580.56;6194076;23;20029;-74
2023/12/20 08:55:10;;;;;;;13.07;3.85;;;;;;;8.37;70.16;101572.53;6195232;23;20043;-74
2023/12/20 08:57:39;;;;;;;12.02;3.22;;;;;;;8.37;69.99;101572.53;6194703;23;20017;-74
2023/12/20 09:00:08;;;;;;;17.45;3.35;;;;;;;8.37;70.06;101577.88;6194786;23;20048;-72
2023/12/20 09:02:37;;;;;;;12.70;2.78;;;;;;;8.32;69.88;101566.88;6194372;23;20083;-74
2023/12/20 09:05:05;;;;;;;13.57;3.75;;;;;;;8.53;69.40;101575.97;6193784;23;20348;-75
2023/12/20 09:07:33;;;;;;;12.57;3.45;;;;;;;8.67;68.69;101558.97;6193503;23;20057;-73
2023/12/20 09:10:02;;;;;;;11.75;3.30;;;;;;;8.84;68.76;101567.59;6194246;23;20028;-73
2023/12/20 09:12:30;;;;;;;11.80;3.65;;;;;;;8.89;67.65;101574.03;6194038;23;20231;-72
2023/12/20 09:15:02;;;;;;;14.77;2.85;;;;;;;8.90;68.05;101567.66;6194262;23;20075;-72
2023/12/20 09:17:29;;;;;;;10.65;3.00;;;;;;;8.87;67.93;101580.59;6193834;23;20024;-73
2023/12/20 09:19:59;;;;;;;14.13;3.25;;;;;;;8.84;68.12;101579.13;6193625;23;20025;-72
2023/12/20 09:22:28;;;;;;;20.80;4.07;;;;;;;8.79;68.50;101584.25;6193001;23;20025;-72
2023/12/20 09:24:55;;;;;;;11.38;3.22;;;;;;;8.74;68.38;101576.78;6193396;23;20174;-73
2023/12/20 09:27:23;;;;;;;18.17;4.50;;;;;;;8.83;68.03;101582.84;6193743;23;20031;-73
2023/12/20 09:29:51;;;;;;;10.52;2.97;;;;;;;8.75;68.77;101577.59;6194395;23;20056;-72
2023/12/20 09:32:21;;;;;;;29.75;4.47;;;;;;;8.92;68.41;101584.38;6194363;23;20089;-70
2023/12/20 09:34:49;;;;;;;29.13;4.43;;;;;;;9.14;67.77;101585.16;6195433;23;20025;-70
2023/12/20 09:37:17;;;;;;;21.92;4.20;;;;;;;9.20;67.28;101579.03;6195411;23;20029;-73
2023/12/20 09:39:45;;;;;;;22.88;3.40;;;;;;;9.49;66.60;101574.47;6196423;23;20076;-71
2023/12/20 09:42:18;;;;;;;17.52;4.07;;;;;;;9.64;66.08;101573.34;6195869;23;20029;-72
2023/12/20 09:44:45;;;;;;;10.30;2.85;;;;;;;9.81;65.19;101573.00;6196222;23;20025;-73
2023/12/20 09:47:17;;;;;;;20.67;4.45;;;;;;;9.95;64.60;101564.00;6196503;23;20025;-72
2023/12/20 09:49:46;;;;;;;15.75;3.85;;;;;;;10.06;64.36;101558.88;6196037;23;20085;-72
2023/12/20 09:52:16;;;;;;;14.30;3.63;;;;;;;10.17;63.82;101565.53;6196131;23;20128;-73
2023/12/20 09:54:46;;;;;;;16.83;3.88;;;;;;;10.22;63.59;101562.28;6196071;23;20077;-72
2023/12/20 09:57:14;;;;;;;12.27;2.90;;;;;;;10.24;63.61;101565.59;6195893;23;20100;-72
2023/12/20 09:59:42;;;;;;;12.60;2.80;;;;;;;10.30;63.43;101557.53;6196676;23;20021;-72
2023/12/20 10:02:14;;;;;;;17.75;3.85;;;;;;;10.37;63.10;101557.56;6195941;23;20091;-73
2023/12/20 10:04:48;;;;;;;16.15;3.17;;;;;;;10.36;62.99;101564.78;6196481;23;20028;-74
2023/12/20 10:07:17;;;;;;;20.73;3.30;;;;;;;10.36;63.28;101558.59;6195438;23;20025;-71
2023/12/20 10:09:46;;;;;;;18.10;3.88;;;;;;;10.38;63.25;101557.34;6195655;23;20193;-73
2023/12/20 10:12:14;;;;;;;16.63;3.75;;;;;;;10.41;62.89;101556.91;6195970;23;20323;-71
2023/12/20 10:14:42;;;;;;;20.33;3.20;;;;;;;10.44;63.00;101553.00;6195790;23;20025;-73
2023/12/20 10:17:09;;;;;;;17.83;3.80;;;;;;;10.42;63.10;101545.13;6195840;23;20052;-74
2023/12/20 10:19:38;;;;;;;16.85;3.42;;;;;;;10.44;62.95;101544.94;6195983;23;20092;-74
2023/12/20 10:22:07;;;;;;;13.13;3.35;;;;;;;10.49;62.70;101542.47;6195390;23;20044;-73
2023/12/20 10:24:35;;;;;;;12.38;2.97;;;;;;;10.51;62.85;101545.78;6195378;23;20501;-73
2023/12/20 10:27:04;;;;;;;13.52;3.92;;;;;;;10.53;62.79;101542.88;6195478;23;20362;-73
2023/12/20 10:29:34;;;;;;;10.50;3.03;;;;;;;10.52;62.70;101549.28;6195610;23;20137;-72
2023/12/20 10:32:24;;;;;;;11.50;3.50;;;;;;;10.55;63.13;101551.56;6196693;23;20025;-73
2023/12/20 10:34:53;;;;;;;18.13;3.72;;;;;;;10.39;63.06;101568.94;6194087;23;20915;-68
2023/12/20 10:37:22;;;;;;;12.75;3.67;;;;;;;10.28;63.54;101567.66;6194941;23;20025;-71
2023/12/20 10:39:52;;;;;;;14.43;3.50;;;;;;;10.38;63.58;101570.78;6195970;23;20072;-71
2023/12/20 10:42:22;;;;;;;11.80;3.15;;;;;;;10.47;63.20;101552.59;6195262;23;20080;-69
2023/12/20 10:44:51;;;;;;;12.68;3.17;;;;;;;10.49;63.35;101549.69;6195364;23;20029;-70
2023/12/20 10:47:20;;;;;;;20.00;3.55;;;;;;;10.40;63.46;101547.19;6195074;23;20032;-73
2023/12/20 10:49:48;;;;;;;14.60;3.10;;;;;;;10.24;64.12;101539.53;6194556;23;20032;-70
2023/12/20 10:52:18;;;;;;;14.05;2.95;;;;;;;10.07;64.56;101539.03;6195136;23;20462;-72
2023/12/20 10:54:47;;;;;;;22.55;4.40;;;;;;;9.92;65.25;101538.38;6195294;23;20025;-71
2023/12/20 10:57:18;;;;;;;17.60;3.35;;;;;;;9.78;65.54;101540.16;6194865;23;20032;-72
2023/12/20 10:59:47;;;;;;;14.25;3.00;;;;;;;9.66;66.16;101533.72;6195947;23;20088;-72
2023/12/20 11:02:18;;;;;;;13.90;3.10;;;;;;;9.55;66.60;101528.06;6196069;23;20029;-71
2023/12/20 11:04:54;;;;;;;12.23;3.30;;;;;;;9.45;66.81;101523.91;6195311;23;20026;-71
2023/12/20 11:07:26;;;;;;;15.18;3.28;;;;;;;9.41;67.67;101525.31;6194295;23;20025;-71
2023/12/20 11:10:01;;;;;;;18.00;3.33;;;;;;;9.34;67.65;101520.94;6195366;23;20025;-71
2023/12/20 11:12:39;;;;;;;12.23;3.55;;;;;;;9.29;67.76;101524.22;6194729;23;20029;-71
2023/12/20 11:15:07;;;;;;;13.48;3.05;;;;;;;9.26;68.08;101521.09;6195473;23;20025;-72
2023/12/20 11:17:35;;;;;;;13.50;2.65;;;;;;;9.25;68.24;101524.81;6194385;23;20021;-72
2023/12/20 11:20:10;;;;;;;13.63;3.97;;;;;;;9.23;68.60;101524.16;6194437;23;20137;-71
2023/12/20 11:22:41;;;;;;;12.70;3.15;;;;;;;9.35;67.64;101526.09;6193862;23;20029;-72
2023/12/20 11:25:12;;;;;;;14.02;3.33;;;;;;;9.50;67.47;101519.78;6195401;23;20025;-70
2023/12/20 11:27:43;;;;;;;13.02;3.30;;;;;;;9.68;66.82;101512.03;6194574;23;20038;-71
2023/12/20 11:30:16;;;;;;;10.52;2.55;;;;;;;9.84;66.64;101519.75;6195282;23;20017;-70
2023/12/20 11:32:47;;;;;;;12.25;2.53;;;;;;;10.00;66.01;101508.66;6195089;23;20048;-70